createdAt,value
2017-05-14T00:02:22.511Z,83.10
2017-05-14T00:04:50.881Z,83.00
2017-05-14T00:07:18.820Z,82.40
2017-05-14T00:09:47.119Z,82.70
2017-05-14T00:12:15.104Z,82.70
2017-05-14T00:14:43.035Z,82.50
2017-05-14T00:19:40.274Z,82.30
2017-05-14T00:24:37.473Z,82.50
2017-05-14T00:27:05.823Z,82.50
2017-05-14T00:29:33.755Z,82.30
2017-05-14T00:32:02.058Z,82.60
2017-05-14T00:34:30.411Z,83.00
2017-05-14T00:36:58.711Z,82.20
2017-05-14T00:39:27.379Z,84.00
2017-05-14T00:41:55.838Z,84.60
2017-05-14T00:46:52.684Z,84.60
2017-05-14T00:49:20.714Z,84.50
2017-05-14T00:51:48.656Z,85.00
2017-05-14T00:54:16.962Z,85.60
2017-05-14T00:56:45.322Z,85.90
2017-05-14T00:59:13.990Z,86.00
2017-05-14T01:04:11.242Z,84.70
2017-05-14T01:06:39.551Z,85.20
2017-05-14T01:09:07.501Z,85.50
2017-05-14T01:11:35.878Z,86.20
2017-05-14T01:14:04.174Z,86.60
2017-05-14T01:16:32.471Z,86.30
2017-05-14T01:21:30.602Z,85.80
2017-05-14T01:23:58.908Z,85.90
2017-05-14T01:26:27.290Z,85.30
2017-05-14T01:28:56.332Z,85.10
2017-05-14T01:33:53.992Z,85.50
2017-05-14T01:36:22.684Z,85.70
2017-05-14T01:38:51.016Z,85.80
2017-05-14T01:41:19.003Z,86.20
2017-05-14T01:46:16.187Z,86.30
2017-05-14T01:48:44.534Z,86.00
2017-05-14T01:51:12.829Z,85.40
2017-05-14T01:53:41.502Z,85.40
2017-05-14T01:56:10.595Z,86.90
2017-05-14T01:58:38.913Z,85.90
2017-05-14T02:01:07.217Z,86.80
2017-05-14T02:06:04.827Z,87.10
2017-05-14T02:08:33.127Z,86.50
2017-05-14T02:11:01.622Z,86.30
2017-05-14T02:13:29.559Z,87.20
2017-05-14T02:15:57.855Z,86.80
2017-05-14T02:18:26.947Z,86.90
2017-05-14T02:25:52.716Z,87.40
2017-05-14T02:28:21.039Z,87.60
2017-05-14T02:30:50.091Z,88.40
2017-05-14T02:33:18.458Z,87.30
2017-05-14T02:35:46.755Z,87.70
2017-05-14T02:38:15.795Z,86.00
2017-05-14T02:40:44.152Z,87.10
2017-05-14T02:43:12.454Z,87.50
2017-05-14T02:50:39.036Z,88.90
2017-05-14T02:53:07.336Z,89.10
2017-05-14T02:55:36.454Z,90.00
2017-05-14T02:58:04.391Z,88.50
2017-05-14T03:00:32.699Z,89.60
2017-05-14T03:03:01.422Z,89.40
2017-05-14T03:05:29.728Z,90.00
2017-05-14T03:10:26.962Z,88.10
2017-05-14T03:12:55.275Z,88.50
2017-05-14T03:15:24.331Z,88.80
2017-05-14T03:17:52.715Z,88.80
2017-05-14T03:20:21.036Z,88.40
2017-05-14T03:22:49.363Z,88.60
2017-05-14T03:25:18.494Z,87.80
2017-05-14T03:27:46.431Z,86.90
2017-05-14T03:30:14.738Z,87.40
2017-05-14T03:37:41.446Z,86.90
2017-05-14T03:42:38.344Z,86.70
2017-05-14T03:45:07.394Z,86.70
2017-05-14T03:50:04.638Z,84.80
2017-05-14T03:52:32.939Z,84.10
2017-05-14T03:55:01.655Z,86.10
2017-05-14T03:57:29.584Z,86.10
2017-05-14T03:59:57.518Z,86.10
2017-05-14T04:02:25.870Z,86.30
2017-05-14T04:04:54.562Z,87.40
2017-05-14T04:07:22.886Z,87.30
2017-05-14T04:12:19.950Z,85.30
2017-05-14T04:17:18.674Z,86.00
2017-05-14T04:19:47.353Z,85.70
2017-05-14T04:22:16.402Z,85.80
2017-05-14T04:24:44.391Z,86.70
2017-05-14T04:27:12.328Z,86.30
2017-05-14T04:29:40.665Z,86.30
2017-05-14T04:32:08.650Z,86.40
2017-05-14T04:34:36.946Z,87.20
2017-05-14T04:37:05.623Z,87.50
2017-05-14T04:39:34.324Z,87.10
2017-05-14T04:42:02.622Z,87.20
2017-05-14T04:44:30.968Z,87.80
2017-05-14T04:46:59.311Z,87.50
2017-05-14T04:49:28.571Z,87.20
2017-05-14T04:54:25.809Z,86.90
2017-05-14T04:56:54.124Z,87.60
2017-05-14T04:59:22.108Z,87.40
2017-05-14T05:04:19.476Z,88.30
2017-05-14T05:06:47.795Z,87.50
2017-05-14T05:09:16.152Z,86.80
2017-05-14T05:11:44.460Z,87.60
2017-05-14T05:14:12.399Z,86.40
2017-05-14T05:16:40.766Z,86.90
2017-05-14T05:19:09.147Z,89.00
2017-05-14T05:21:37.107Z,88.80
2017-05-14T05:24:06.243Z,89.00
2017-05-14T05:26:34.562Z,88.70
2017-05-14T05:31:32.218Z,87.90
2017-05-14T05:36:29.407Z,84.30
2017-05-14T05:38:57.788Z,85.30
2017-05-14T05:41:25.731Z,84.30
2017-05-14T05:43:54.055Z,85.00
2017-05-14T05:46:22.064Z,84.50
2017-05-14T05:48:50.399Z,83.60
2017-05-14T05:51:18.578Z,84.50
2017-05-14T05:53:46.931Z,82.80
2017-05-14T05:56:15.234Z,82.70
2017-05-14T06:03:41.030Z,81.80
2017-05-14T06:06:09.341Z,81.10
2017-05-14T06:08:37.712Z,81.50
2017-05-14T06:11:06.022Z,82.30
2017-05-14T06:13:33.972Z,81.10
2017-05-14T06:18:31.603Z,80.10
2017-05-14T06:20:59.530Z,81.10
2017-05-14T06:23:28.023Z,81.70
2017-05-14T06:28:25.277Z,77.40
2017-05-14T06:30:54.050Z,77.40
2017-05-14T06:33:22.371Z,78.10
2017-05-14T06:35:51.234Z,77.40
2017-05-14T06:38:19.611Z,76.10
2017-05-14T06:40:48.683Z,77.30
2017-05-14T06:43:16.998Z,77.10
2017-05-14T06:45:44.986Z,76.40
2017-05-14T06:48:13.293Z,76.70
2017-05-14T06:50:41.591Z,74.00
2017-05-14T06:53:09.949Z,73.60
2017-05-14T06:55:37.907Z,72.70
2017-05-14T06:58:06.226Z,70.60
2017-05-14T07:00:34.607Z,71.70
2017-05-14T07:03:02.546Z,68.90
2017-05-14T07:05:30.863Z,68.80
2017-05-14T07:07:59.610Z,70.80
2017-05-14T07:10:28.664Z,69.10
2017-05-14T07:12:56.971Z,69.40
2017-05-14T07:17:54.326Z,67.30
2017-05-14T07:20:22.291Z,65.30
2017-05-14T07:22:51.547Z,68.00
2017-05-14T07:25:20.620Z,67.50
2017-05-14T07:27:48.943Z,64.00
2017-05-14T07:32:46.216Z,64.00
2017-05-14T07:35:14.583Z,63.60
2017-05-14T07:37:43.704Z,62.80
2017-05-14T07:40:12.003Z,64.30
2017-05-14T07:45:19.611Z,62.20
2017-05-14T07:47:47.570Z,61.00
2017-05-14T07:50:15.540Z,59.50
2017-05-14T07:52:43.903Z,60.90
2017-05-14T07:55:11.842Z,59.10
2017-05-14T07:57:39.791Z,57.30
2017-05-14T08:00:08.301Z,57.90
2017-05-14T08:02:36.970Z,57.90
2017-05-14T08:05:05.262Z,61.50
2017-05-14T08:10:02.495Z,58.10
2017-05-14T08:12:30.791Z,56.50
2017-05-14T08:14:59.677Z,56.40
2017-05-14T08:17:27.615Z,56.10
2017-05-14T08:19:55.572Z,57.30
2017-05-14T08:24:53.198Z,57.60
2017-05-14T08:29:50.871Z,57.00
2017-05-14T08:32:18.808Z,56.40
2017-05-14T08:34:47.486Z,56.10
2017-05-14T08:37:15.731Z,59.20
2017-05-14T08:39:44.032Z,57.80
2017-05-14T08:42:11.959Z,58.30
2017-05-14T08:44:39.938Z,59.40
2017-05-14T08:47:08.250Z,59.40
2017-05-14T08:49:36.555Z,59.00
2017-05-14T08:52:04.563Z,59.50
2017-05-14T08:54:32.879Z,58.40
2017-05-14T08:57:01.185Z,59.40
2017-05-14T08:59:29.539Z,59.40
2017-05-14T09:01:58.204Z,61.60
2017-05-14T09:04:26.870Z,61.30
2017-05-14T09:06:55.273Z,59.90
2017-05-14T09:09:23.223Z,58.30
2017-05-14T09:11:52.300Z,57.90
2017-05-14T09:14:21.419Z,57.50
2017-05-14T09:16:49.377Z,58.30
2017-05-14T09:19:17.348Z,57.20
2017-05-14T09:21:45.703Z,55.50
2017-05-14T09:24:13.627Z,59.70
2017-05-14T09:26:42.663Z,57.10
2017-05-14T09:29:11.010Z,55.00
2017-05-14T09:31:39.325Z,53.80
2017-05-14T09:36:36.967Z,53.30
2017-05-14T09:44:02.673Z,54.70
2017-05-14T09:46:31.713Z,51.10
2017-05-14T09:49:00.010Z,51.90
2017-05-14T09:51:28.370Z,53.20
2017-05-14T09:53:57.034Z,49.70
2017-05-14T09:56:25.323Z,52.10
2017-05-14T09:58:53.698Z,50.40
2017-05-14T10:01:21.621Z,49.70
2017-05-14T10:03:49.922Z,52.10
2017-05-14T10:06:17.903Z,53.10
2017-05-14T10:08:45.827Z,51.70
2017-05-14T10:11:14.863Z,57.00
2017-05-14T10:13:43.206Z,60.10
2017-05-14T10:21:08.943Z,68.90
2017-05-14T10:23:37.243Z,74.20
2017-05-14T10:26:05.948Z,79.80
2017-05-14T10:28:34.701Z,83.70
2017-05-14T10:31:03.019Z,79.10
2017-05-14T10:33:30.955Z,83.30
2017-05-14T10:35:59.655Z,76.30
2017-05-14T10:40:57.204Z,81.60
2017-05-14T10:43:25.554Z,83.00
2017-05-14T10:45:53.479Z,77.50
2017-05-14T10:48:21.406Z,79.60
2017-05-14T10:50:50.632Z,74.40
2017-05-14T10:53:18.939Z,73.20
2017-05-14T10:58:16.530Z,69.40
2017-05-14T11:00:44.828Z,62.00
2017-05-14T11:03:13.491Z,66.60
2017-05-14T11:05:42.582Z,58.60
2017-05-14T11:08:11.255Z,59.60
2017-05-14T11:10:40.376Z,56.00
2017-05-14T11:15:37.970Z,55.00
2017-05-14T11:18:07.029Z,58.20
2017-05-14T11:20:37.997Z,54.50
2017-05-14T11:23:06.329Z,49.20
2017-05-14T11:25:35.377Z,53.80
2017-05-14T11:28:03.400Z,51.10
2017-05-14T11:30:31.337Z,51.10
2017-05-14T11:32:59.634Z,49.60
2017-05-14T11:35:28.766Z,50.70
2017-05-14T11:37:57.066Z,48.60
2017-05-14T11:42:55.047Z,50.80
2017-05-14T11:45:22.983Z,51.50
2017-05-14T11:47:50.931Z,48.90
2017-05-14T11:52:48.551Z,50.10
2017-05-14T11:55:17.591Z,50.60
2017-05-14T11:57:45.939Z,48.50
2017-05-14T12:00:14.978Z,53.70
2017-05-14T12:07:41.122Z,49.50
2017-05-14T12:15:08.337Z,45.00
2017-05-14T12:17:36.651Z,45.30
2017-05-14T12:20:05.008Z,43.70
2017-05-14T12:22:33.333Z,44.80
2017-05-14T12:25:02.596Z,46.00
2017-05-14T12:27:30.598Z,45.20
2017-05-14T12:30:00.763Z,41.30
2017-05-14T12:32:29.067Z,44.70
2017-05-14T12:34:57.410Z,45.70
2017-05-14T12:37:26.446Z,43.90
2017-05-14T12:39:54.747Z,46.10
2017-05-14T12:42:23.150Z,45.70
2017-05-14T12:44:51.463Z,44.00
2017-05-14T12:49:49.427Z,42.40
2017-05-14T12:52:17.727Z,42.00
2017-05-14T12:54:46.026Z,42.50
2017-05-14T12:57:14.375Z,45.40
2017-05-14T12:59:42.674Z,46.70
2017-05-14T13:02:10.600Z,44.60
2017-05-14T13:04:39.406Z,42.10
2017-05-14T13:07:08.455Z,44.60
2017-05-14T13:09:36.780Z,43.80
2017-05-14T13:12:05.158Z,42.30
2017-05-14T13:14:33.507Z,41.70
2017-05-14T13:17:01.840Z,44.20
2017-05-14T13:19:30.548Z,42.60
2017-05-14T13:21:58.471Z,42.00
2017-05-14T13:29:24.954Z,43.50
2017-05-14T13:31:53.250Z,43.40
2017-05-14T13:34:21.239Z,44.10
2017-05-14T13:36:49.182Z,44.70
2017-05-14T13:39:17.486Z,42.50
2017-05-14T13:41:46.282Z,42.50
2017-05-14T13:46:44.206Z,46.00
2017-05-14T13:49:12.807Z,47.80
2017-05-14T13:51:41.839Z,48.00
2017-05-14T13:54:10.134Z,44.90
2017-05-14T13:56:38.542Z,46.40
2017-05-14T13:59:07.206Z,47.30
2017-05-14T14:01:35.526Z,44.30
2017-05-14T14:04:04.267Z,50.40
2017-05-14T14:06:32.559Z,47.40
2017-05-14T14:09:00.483Z,45.90
2017-05-14T14:11:28.830Z,48.60
2017-05-14T14:13:56.754Z,47.10
2017-05-14T14:16:25.787Z,48.10
2017-05-14T14:18:54.498Z,48.60
2017-05-14T14:23:52.449Z,49.10
2017-05-14T14:28:50.062Z,49.40
2017-05-14T14:31:18.377Z,51.30
2017-05-14T14:33:46.779Z,51.30
2017-05-14T14:36:14.736Z,49.60
2017-05-14T14:38:43.035Z,49.90
2017-05-14T14:41:11.384Z,50.10
2017-05-14T14:43:39.315Z,50.10
2017-05-14T14:46:07.619Z,52.40
2017-05-14T14:48:36.345Z,53.30
2017-05-14T14:51:04.660Z,54.40
2017-05-14T14:53:32.606Z,52.90
2017-05-14T14:56:00.619Z,53.40
2017-05-14T14:58:29.282Z,54.00
2017-05-14T15:00:57.676Z,52.70
2017-05-14T15:03:26.037Z,54.00
2017-05-14T15:05:54.322Z,54.80
2017-05-14T15:08:22.246Z,52.00
2017-05-14T15:10:50.606Z,49.30
2017-05-14T15:13:18.919Z,50.30
2017-05-14T15:18:15.850Z,50.70
2017-05-14T15:20:43.782Z,50.50
2017-05-14T15:25:41.383Z,49.80
2017-05-14T15:30:38.938Z,50.20
2017-05-14T15:33:07.282Z,52.20
2017-05-14T15:35:35.602Z,52.80
2017-05-14T15:38:04.662Z,53.20
2017-05-14T15:40:32.687Z,60.70
2017-05-14T15:43:00.982Z,58.90
2017-05-14T15:45:29.275Z,58.80
2017-05-14T15:47:58.379Z,59.20
2017-05-14T15:55:24.436Z,61.20
2017-05-14T15:57:52.363Z,62.30
2017-05-14T16:00:20.670Z,61.60
2017-05-14T16:02:50.067Z,64.50
2017-05-14T16:05:18.006Z,62.60
2017-05-14T16:10:06.330Z,62.60
2017-05-14T16:12:34.643Z,62.20
2017-05-14T16:17:32.278Z,62.30
2017-05-14T16:20:00.567Z,64.70
2017-05-14T16:22:28.495Z,63.90
2017-05-14T16:24:56.846Z,64.40
2017-05-14T16:27:25.139Z,62.30
2017-05-14T16:29:53.439Z,62.70
2017-05-14T16:32:21.791Z,61.60
2017-05-14T16:34:49.735Z,62.20
2017-05-14T16:37:18.063Z,63.50
2017-05-14T16:39:46.510Z,61.20
2017-05-14T16:42:14.438Z,64.30
2017-05-14T16:44:42.738Z,62.20
2017-05-14T16:47:11.086Z,62.90
2017-05-14T16:49:39.754Z,61.60
2017-05-14T16:57:10.753Z,61.50
2017-05-14T16:59:39.055Z,61.90
2017-05-14T17:02:07.354Z,60.40
2017-05-14T17:04:35.999Z,60.90
2017-05-14T17:09:32.814Z,60.90
2017-05-14T17:12:01.863Z,61.20
2017-05-14T17:14:30.166Z,62.90
2017-05-14T17:19:28.126Z,62.10
2017-05-14T17:21:56.047Z,61.70
2017-05-14T17:26:53.637Z,62.00
2017-05-14T17:29:21.554Z,62.90
2017-05-14T17:31:49.863Z,62.10
2017-05-14T17:34:18.598Z,63.20
2017-05-14T17:39:16.195Z,63.00
2017-05-14T17:41:44.191Z,64.00
2017-05-14T17:44:13.222Z,66.10
2017-05-14T17:46:41.515Z,66.20
2017-05-14T17:49:09.854Z,66.30
2017-05-14T17:54:07.010Z,65.60
2017-05-14T17:56:35.348Z,65.80
2017-05-14T17:59:04.391Z,65.00
2017-05-14T18:04:01.270Z,66.60
2017-05-14T18:06:29.194Z,67.80
2017-05-14T18:13:55.602Z,65.40
2017-05-14T18:16:23.894Z,67.60
2017-05-14T18:21:22.063Z,66.80
2017-05-14T18:23:50.014Z,66.10
2017-05-14T18:26:18.383Z,64.50
2017-05-14T18:28:46.333Z,63.70
2017-05-14T18:31:14.626Z,64.90
2017-05-14T18:33:42.991Z,64.30
2017-05-14T18:36:10.918Z,64.40
2017-05-14T18:38:38.842Z,64.00
2017-05-14T18:41:07.563Z,66.10
2017-05-14T18:46:05.123Z,67.80
2017-05-14T18:48:33.139Z,69.10
2017-05-14T18:51:01.810Z,68.60
2017-05-14T18:53:30.107Z,69.70
2017-05-14T18:58:27.698Z,69.60
2017-05-14T19:00:56.366Z,71.20
2017-05-14T19:03:25.074Z,72.60
2017-05-14T19:05:54.107Z,71.10
2017-05-14T19:08:22.402Z,72.50
2017-05-14T19:10:50.387Z,72.20
2017-05-14T19:13:18.711Z,72.60
2017-05-14T19:15:46.652Z,71.30
2017-05-14T19:18:15.019Z,70.20
2017-05-14T19:20:43.318Z,69.60
2017-05-14T19:25:40.896Z,69.80
2017-05-14T19:28:09.191Z,69.20
2017-05-14T19:30:38.223Z,69.60
2017-05-14T19:33:07.343Z,69.40
2017-05-14T19:38:05.320Z,69.10
2017-05-14T19:40:33.671Z,70.60
2017-05-14T19:43:02.339Z,71.60
2017-05-14T19:45:31.006Z,70.60
2017-05-14T19:48:00.015Z,70.30
2017-05-14T19:50:27.939Z,69.80
2017-05-14T19:52:56.239Z,71.10
2017-05-14T19:55:25.335Z,71.20
2017-05-14T20:05:27.175Z,69.80
2017-05-14T20:07:55.839Z,69.50
2017-05-14T20:10:23.766Z,70.00
2017-05-14T20:12:52.100Z,69.50
2017-05-14T20:15:21.138Z,69.70
2017-05-14T20:22:47.657Z,70.00
2017-05-14T20:25:15.591Z,69.90
2017-05-14T20:27:43.586Z,69.70
2017-05-14T20:30:11.522Z,69.10
2017-05-14T20:35:10.118Z,69.90
2017-05-14T20:37:38.415Z,68.40
2017-05-14T20:40:06.715Z,68.00
2017-05-14T20:47:32.495Z,70.20
2017-05-14T20:52:29.715Z,69.50
2017-05-14T20:54:58.010Z,69.10
2017-05-14T20:57:27.094Z,69.80
2017-05-14T20:59:55.024Z,68.50
2017-05-14T21:02:23.687Z,69.50
2017-05-14T21:09:50.204Z,69.80
2017-05-14T21:12:18.598Z,70.50
2017-05-14T21:17:16.197Z,68.80
2017-05-14T21:19:44.601Z,68.70
2017-05-14T21:22:13.271Z,68.70
2017-05-14T21:27:10.511Z,69.40
2017-05-14T21:29:38.436Z,67.90
2017-05-14T21:32:07.478Z,68.90
2017-05-14T21:34:35.831Z,69.70
2017-05-14T21:37:03.783Z,67.90
2017-05-14T21:39:32.819Z,70.20
2017-05-14T21:42:01.519Z,69.00
2017-05-14T21:44:29.811Z,69.00
2017-05-14T21:46:58.127Z,68.50
2017-05-14T21:49:26.490Z,71.30
2017-05-14T21:54:23.670Z,71.20
2017-05-14T21:56:52.306Z,71.00
2017-05-14T21:59:20.619Z,70.30
2017-05-14T22:01:54.534Z,70.30
2017-05-14T22:04:22.830Z,69.70
2017-05-14T22:09:20.228Z,69.20
2017-05-14T22:11:48.188Z,68.40
2017-05-14T22:14:16.538Z,69.60
2017-05-14T22:16:44.523Z,69.00
2017-05-14T22:19:12.824Z,68.40
2017-05-14T22:21:40.756Z,69.70
2017-05-14T22:24:09.100Z,70.80
2017-05-14T22:26:37.763Z,71.50
2017-05-14T22:29:06.062Z,70.20
2017-05-14T22:31:34.415Z,71.50
2017-05-14T22:34:03.080Z,68.80
2017-05-14T22:36:32.122Z,70.20
2017-05-14T22:39:00.840Z,70.10
2017-05-14T22:41:29.879Z,68.60
2017-05-14T22:43:57.802Z,68.30
2017-05-14T22:46:26.524Z,69.20
2017-05-14T22:48:54.814Z,68.60
2017-05-14T22:53:52.410Z,69.80
2017-05-14T22:56:21.467Z,70.70
2017-05-14T22:58:49.782Z,69.80
2017-05-14T23:01:18.526Z,70.40
2017-05-14T23:03:46.860Z,70.60
2017-05-14T23:06:14.793Z,69.90
2017-05-14T23:08:42.775Z,71.90
2017-05-14T23:11:11.071Z,71.80
2017-05-14T23:13:39.364Z,72.50
2017-05-14T23:16:07.339Z,72.60
2017-05-14T23:18:35.643Z,72.70
2017-05-14T23:21:04.332Z,72.70
2017-05-14T23:23:33.195Z,72.70
2017-05-14T23:26:02.239Z,71.70
2017-05-14T23:28:30.538Z,72.80
2017-05-14T23:31:00.356Z,74.00
2017-05-14T23:33:29.019Z,73.40
2017-05-14T23:35:56.942Z,73.00
2017-05-14T23:38:25.285Z,74.60
2017-05-14T23:40:54.328Z,73.90
2017-05-14T23:48:20.441Z,74.80
2017-05-14T23:53:17.698Z,74.80
2017-05-14T23:55:46.012Z,75.70
2017-05-14T23:58:14.319Z,75.70
